createdAt,value
2018-12-29T00:01:19.053Z,52.93
2018-12-29T00:03:52.375Z,49.90
2018-12-29T00:06:22.825Z,52.83
2018-12-29T00:08:56.551Z,53.83
2018-12-29T00:11:28.049Z,47.43
2018-12-29T00:13:58.668Z,47.43
2018-12-29T00:16:29.556Z,54.70
2018-12-29T00:19:03.624Z,52.97
2018-12-29T00:21:35.040Z,58.27
2018-12-29T00:24:05.802Z,49.47
2018-12-29T00:26:36.381Z,51.27
2018-12-29T00:29:06.854Z,55.53
2018-12-29T00:31:40.397Z,57.53
2018-12-29T00:34:10.974Z,51.67
2018-12-29T00:36:41.442Z,54.93
2018-12-29T00:39:12.000Z,56.03
2018-12-29T00:41:43.245Z,61.60
2018-12-29T00:44:14.017Z,50.30
2018-12-29T00:46:46.929Z,51.23
2018-12-29T00:49:17.434Z,56.87
2018-12-29T00:51:49.166Z,53.93
2018-12-29T00:54:19.881Z,59.90
2018-12-29T00:56:50.378Z,56.23
2018-12-29T00:59:20.884Z,58.20
2018-12-29T01:01:51.358Z,57.27
2018-12-29T01:04:21.937Z,53.37
2018-12-29T01:06:52.564Z,55.50
2018-12-29T01:09:23.206Z,58.30
2018-12-29T01:11:53.947Z,57.00
2018-12-29T01:14:24.611Z,55.47
2018-12-29T01:16:55.300Z,58.57
2018-12-29T01:19:29.982Z,56.77
2018-12-29T01:22:02.453Z,54.67
2018-12-29T01:24:32.943Z,57.00
2018-12-29T01:27:03.383Z,58.20
2018-12-29T01:29:34.119Z,55.23
2018-12-29T01:32:04.572Z,56.93
2018-12-29T01:34:35.357Z,53.27
2018-12-29T01:37:06.414Z,53.23
2018-12-29T01:39:36.844Z,51.17
2018-12-29T01:42:07.611Z,58.07
2018-12-29T01:44:45.891Z,50.90
2018-12-29T01:47:16.333Z,51.43
2018-12-29T01:49:47.159Z,51.37
2018-12-29T01:52:17.786Z,50.90
2018-12-29T01:54:48.299Z,52.77
2018-12-29T01:57:20.757Z,50.70
2018-12-29T01:59:51.131Z,56.00
2018-12-29T02:02:21.663Z,51.57
2018-12-29T02:04:52.139Z,49.17
2018-12-29T02:07:22.546Z,53.10
2018-12-29T02:09:53.553Z,53.17
2018-12-29T02:12:26.508Z,46.47
2018-12-29T02:14:57.128Z,50.77
2018-12-29T02:17:27.612Z,52.03
2018-12-29T02:19:58.525Z,46.30
2018-12-29T02:22:28.962Z,51.63
2018-12-29T02:25:04.707Z,50.53
2018-12-29T02:27:44.325Z,53.83
2018-12-29T02:30:18.677Z,52.30
2018-12-29T02:32:49.382Z,48.30
2018-12-29T02:35:20.025Z,48.70
2018-12-29T02:37:50.666Z,50.00
2018-12-29T02:40:21.117Z,50.93
2018-12-29T02:42:51.751Z,48.80
2018-12-29T02:45:22.217Z,53.47
2018-12-29T02:47:53.502Z,51.20
2018-12-29T02:50:24.055Z,48.63
2018-12-29T02:52:54.630Z,49.43
2018-12-29T02:55:27.808Z,50.00
2018-12-29T02:57:58.696Z,47.40
2018-12-29T03:00:29.112Z,50.27
2018-12-29T03:02:59.594Z,48.03
2018-12-29T03:05:30.100Z,50.77
2018-12-29T03:08:01.365Z,51.67
2018-12-29T03:10:31.768Z,57.67
2018-12-29T03:13:02.168Z,56.20
2018-12-29T03:15:32.663Z,52.77
2018-12-29T03:18:03.159Z,51.67
2018-12-29T03:20:34.320Z,58.10
2018-12-29T03:23:09.616Z,50.23
2018-12-29T03:25:40.515Z,51.17
2018-12-29T03:28:10.999Z,49.43
2018-12-29T03:30:41.492Z,49.40
2018-12-29T03:33:12.008Z,52.80
2018-12-29T03:35:43.008Z,44.10
2018-12-29T03:38:13.352Z,50.10
2018-12-29T03:40:43.840Z,47.40
2018-12-29T03:43:17.065Z,52.53
2018-12-29T03:45:49.331Z,47.37
2018-12-29T03:48:20.103Z,50.50
2018-12-29T03:50:53.231Z,49.13
2018-12-29T03:53:23.720Z,49.93
2018-12-29T03:55:56.878Z,45.83
2018-12-29T03:58:27.463Z,51.60
2018-12-29T04:00:58.043Z,52.77
2018-12-29T04:03:30.789Z,47.37
2018-12-29T04:06:02.196Z,52.50
2018-12-29T04:08:36.795Z,49.83
2018-12-29T04:11:07.120Z,50.23
2018-12-29T04:13:38.177Z,51.20
2018-12-29T04:16:10.736Z,49.77
2018-12-29T04:18:41.116Z,49.87
2018-12-29T04:21:11.544Z,52.73
2018-12-29T04:23:42.696Z,54.17
2018-12-29T04:26:13.115Z,58.57
2018-12-29T04:28:43.811Z,50.47
2018-12-29T04:31:14.322Z,53.93
2018-12-29T04:33:45.029Z,57.27
2018-12-29T04:36:15.429Z,54.77
2018-12-29T04:38:46.174Z,62.63
2018-12-29T04:41:16.749Z,52.20
2018-12-29T04:43:47.679Z,57.57
2018-12-29T04:46:18.604Z,53.60
2018-12-29T04:48:49.113Z,56.77
2018-12-29T04:51:20.166Z,59.87
2018-12-29T04:53:50.695Z,55.47
2018-12-29T04:56:24.244Z,54.37
2018-12-29T04:58:54.722Z,52.93
2018-12-29T05:01:25.147Z,57.60
2018-12-29T05:04:01.651Z,56.83
2018-12-29T05:06:32.374Z,54.27
2018-12-29T05:09:02.581Z,57.57
2018-12-29T05:11:33.380Z,52.77
2018-12-29T05:14:05.445Z,55.73
2018-12-29T05:16:35.923Z,55.13
2018-12-29T05:19:06.451Z,56.23
2018-12-29T05:21:36.989Z,58.20
2018-12-29T05:24:07.401Z,56.03
2018-12-29T05:26:37.830Z,51.33
2018-12-29T05:29:08.629Z,56.93
2018-12-29T05:31:42.238Z,52.83
2018-12-29T05:34:12.738Z,57.73
2018-12-29T05:36:44.008Z,56.17
2018-12-29T05:39:14.531Z,59.93
2018-12-29T05:41:44.944Z,56.63
2018-12-29T05:44:15.426Z,53.67
2018-12-29T05:46:45.883Z,54.90
2018-12-29T05:49:16.309Z,58.47
2018-12-29T05:51:50.105Z,53.97
2018-12-29T05:54:20.519Z,52.47
2018-12-29T05:56:54.113Z,56.23
2018-12-29T05:59:24.909Z,47.43
2018-12-29T06:01:56.137Z,54.50
2018-12-29T06:04:26.691Z,54.67
2018-12-29T06:06:59.344Z,48.97
2018-12-29T06:09:30.078Z,51.80
2018-12-29T06:12:02.043Z,50.37
2018-12-29T06:14:34.720Z,44.77
2018-12-29T06:17:05.099Z,52.83
2018-12-29T06:19:35.521Z,55.63
2018-12-29T06:22:06.056Z,52.77
2018-12-29T06:24:36.427Z,47.87
2018-12-29T06:27:06.841Z,51.20
2018-12-29T06:29:37.271Z,48.60
2018-12-29T06:32:09.985Z,54.50
2018-12-29T06:34:42.228Z,52.83
2018-12-29T06:37:12.716Z,50.97
2018-12-29T06:39:49.397Z,50.50
2018-12-29T06:42:21.847Z,49.17
2018-12-29T06:44:53.360Z,47.23
2018-12-29T06:47:23.757Z,46.97
2018-12-29T06:49:54.257Z,53.73
2018-12-29T06:52:24.676Z,49.73
2018-12-29T06:54:55.855Z,48.07
2018-12-29T06:57:28.588Z,53.33
2018-12-29T06:59:59.348Z,53.17
2018-12-29T07:02:31.769Z,47.00
2018-12-29T07:05:02.182Z,51.10
2018-12-29T07:07:34.901Z,57.13
2018-12-29T07:10:07.682Z,49.43
2018-12-29T07:12:38.314Z,55.07
2018-12-29T07:15:09.456Z,56.83
2018-12-29T07:17:44.870Z,53.13
2018-12-29T07:20:17.133Z,51.30
2018-12-29T07:22:48.603Z,51.97
2018-12-29T07:25:19.327Z,46.47
2018-12-29T07:27:50.094Z,51.97
2018-12-29T07:30:22.710Z,51.60
2018-12-29T07:32:56.959Z,51.17
2018-12-29T07:35:27.369Z,52.40
2018-12-29T07:37:57.832Z,54.97
2018-12-29T07:40:31.121Z,57.10
2018-12-29T07:43:05.363Z,52.43
2018-12-29T07:45:37.296Z,60.40
2018-12-29T07:48:08.059Z,51.13
2018-12-29T07:50:39.076Z,50.47
2018-12-29T07:53:10.610Z,58.77
2018-12-29T07:55:57.013Z,57.93
2018-12-29T07:58:31.433Z,52.50
2018-12-29T08:01:02.375Z,53.57
2018-12-29T08:03:32.799Z,53.03
2018-12-29T08:06:03.342Z,51.63
2018-12-29T08:08:33.832Z,51.73
2018-12-29T08:11:04.257Z,54.23
2018-12-29T08:13:34.681Z,52.10
2018-12-29T08:16:05.381Z,49.77
2018-12-29T08:18:40.895Z,52.37
2018-12-29T08:21:11.466Z,57.60
2018-12-29T08:23:41.847Z,56.83
2018-12-29T08:26:15.634Z,51.50
2018-12-29T08:28:48.370Z,48.37
2018-12-29T08:31:18.937Z,51.87
2018-12-29T08:33:49.421Z,53.33
2018-12-29T08:36:19.893Z,51.57
2018-12-29T08:38:50.683Z,51.07
2018-12-29T08:41:20.886Z,51.07
2018-12-29T08:43:54.684Z,52.50
2018-12-29T08:46:26.124Z,52.80
2018-12-29T08:48:56.675Z,55.97
2018-12-29T08:51:27.150Z,57.17
2018-12-29T08:53:57.663Z,54.37
2018-12-29T08:56:28.110Z,57.97
2018-12-29T08:59:06.446Z,50.97
2018-12-29T09:01:40.214Z,53.37
2018-12-29T09:04:11.066Z,55.17
2018-12-29T09:06:43.121Z,54.00
2018-12-29T09:09:14.438Z,53.63
2018-12-29T09:11:47.115Z,53.73
2018-12-29T09:14:17.518Z,53.20
2018-12-29T09:16:53.267Z,53.27
2018-12-29T09:19:27.269Z,54.20
2018-12-29T09:21:56.137Z,50.30
2018-12-29T09:24:26.461Z,58.50
2018-12-29T09:26:57.488Z,56.03
2018-12-29T09:29:27.807Z,53.10
2018-12-29T09:32:01.518Z,55.33
2018-12-29T09:34:34.755Z,55.50
2018-12-29T09:37:05.470Z,53.43
2018-12-29T09:39:35.831Z,51.47
2018-12-29T09:42:06.337Z,53.60
2018-12-29T09:44:36.749Z,52.90
2018-12-29T09:47:07.152Z,55.37
2018-12-29T09:49:37.856Z,53.63
2018-12-29T09:52:08.353Z,54.30
2018-12-29T09:54:42.111Z,54.07
2018-12-29T09:57:16.214Z,48.97
2018-12-29T09:59:46.653Z,55.27
2018-12-29T10:02:19.092Z,53.13
2018-12-29T10:04:50.555Z,51.10
2018-12-29T10:07:27.978Z,50.13
2018-12-29T10:09:59.531Z,51.97
2018-12-29T10:12:35.024Z,49.87
2018-12-29T10:15:08.838Z,53.63
2018-12-29T10:17:41.007Z,51.47
2018-12-29T10:20:11.540Z,54.30
2018-12-29T10:22:42.205Z,50.63
2018-12-29T10:25:12.867Z,53.60
2018-12-29T10:27:46.485Z,51.47
2018-12-29T10:30:24.951Z,48.57
2018-12-29T10:32:55.683Z,47.37
2018-12-29T10:35:27.898Z,49.13
2018-12-29T10:38:00.638Z,45.33
2018-12-29T10:40:31.161Z,49.30
2018-12-29T10:43:01.564Z,51.30
2018-12-29T10:45:32.068Z,46.27
2018-12-29T10:48:07.763Z,47.23
2018-12-29T10:50:40.033Z,41.17
2018-12-29T10:53:10.533Z,45.37
2018-12-29T10:55:47.407Z,45.13
2018-12-29T10:58:18.081Z,48.07
2018-12-29T11:00:49.375Z,42.43
2018-12-29T11:03:20.118Z,49.50
2018-12-29T11:06:15.096Z,47.23
2018-12-29T11:08:52.545Z,41.60
2018-12-29T11:11:23.334Z,44.80
2018-12-29T11:13:54.211Z,48.37
2018-12-29T11:16:28.098Z,44.37
2018-12-29T11:18:58.723Z,44.60
2018-12-29T11:21:29.118Z,42.40
2018-12-29T11:24:02.391Z,44.80
2018-12-29T11:26:35.873Z,39.73
2018-12-29T11:29:13.101Z,40.50
2018-12-29T11:31:43.556Z,39.20
2018-12-29T11:34:16.317Z,42.87
2018-12-29T11:36:46.899Z,41.43
2018-12-29T11:39:17.469Z,41.43
2018-12-29T11:41:51.072Z,39.27
2018-12-29T11:44:21.532Z,37.70
2018-12-29T11:46:52.842Z,37.67
2018-12-29T11:49:23.325Z,37.33
2018-12-29T11:51:53.750Z,40.73
2018-12-29T11:54:25.313Z,40.50
2018-12-29T11:56:57.492Z,38.13
2018-12-29T11:59:28.213Z,37.17
2018-12-29T12:01:58.717Z,35.73
2018-12-29T12:04:29.569Z,38.33
2018-12-29T12:07:01.739Z,38.37
2018-12-29T12:09:32.225Z,37.80
2018-12-29T12:12:05.497Z,36.30
2018-12-29T12:14:38.953Z,31.70
2018-12-29T12:17:09.808Z,37.20
2018-12-29T12:19:40.180Z,33.77
2018-12-29T12:22:13.374Z,33.70
2018-12-29T12:24:44.073Z,34.17
2018-12-29T12:27:14.515Z,30.37
2018-12-29T12:29:45.473Z,31.27
2018-12-29T12:32:15.983Z,32.90
2018-12-29T12:34:49.412Z,37.13
2018-12-29T12:37:19.804Z,35.00
2018-12-29T12:39:50.493Z,32.43
2018-12-29T12:42:23.937Z,32.03
2018-12-29T12:44:56.710Z,30.13
2018-12-29T12:47:29.085Z,33.83
2018-12-29T12:49:59.707Z,33.53
2018-12-29T12:52:31.160Z,32.23
2018-12-29T12:55:02.065Z,34.07
2018-12-29T12:57:33.372Z,31.37
2018-12-29T13:00:07.763Z,28.83
2018-12-29T13:02:42.130Z,33.37
2018-12-29T13:05:21.707Z,30.77
2018-12-29T13:07:52.783Z,31.33
2018-12-29T13:10:24.017Z,33.93
2018-12-29T13:12:56.953Z,30.50
2018-12-29T13:15:27.823Z,31.80
2018-12-29T13:18:01.753Z,31.97
2018-12-29T13:20:32.746Z,31.13
2018-12-29T13:23:03.229Z,28.20
2018-12-29T13:25:34.686Z,26.60
2018-12-29T13:28:08.153Z,29.13
2018-12-29T13:30:42.232Z,29.23
2018-12-29T13:33:12.887Z,28.43
2018-12-29T13:35:44.518Z,27.40
2018-12-29T13:38:18.160Z,28.40
2018-12-29T13:40:51.340Z,30.40
2018-12-29T13:43:21.807Z,27.40
2018-12-29T13:45:52.297Z,32.00
2018-12-29T13:48:22.798Z,29.67
2018-12-29T13:50:56.704Z,28.70
2018-12-29T13:53:31.513Z,30.40
2018-12-29T13:56:04.459Z,31.40
2018-12-29T13:58:34.856Z,26.60
2018-12-29T14:01:08.135Z,26.97
2018-12-29T14:03:41.725Z,27.60
2018-12-29T14:06:12.241Z,28.30
2018-12-29T14:08:42.979Z,30.23
2018-12-29T14:11:13.482Z,26.80
2018-12-29T14:13:43.962Z,26.13
2018-12-29T14:16:14.663Z,26.50
2018-12-29T14:18:45.720Z,25.43
2018-12-29T14:21:16.540Z,27.10
2018-12-29T14:23:46.945Z,25.90
2018-12-29T14:26:18.538Z,25.63
2018-12-29T14:28:49.146Z,23.80
2018-12-29T14:31:19.840Z,21.73
2018-12-29T14:33:54.002Z,22.23
2018-12-29T14:36:24.470Z,25.77
2018-12-29T14:38:55.033Z,24.07
2018-12-29T14:41:25.743Z,21.33
2018-12-29T14:43:56.735Z,25.27
2018-12-29T14:46:27.121Z,24.87
2018-12-29T14:48:57.716Z,23.60
2018-12-29T14:51:31.158Z,23.93
2018-12-29T14:54:01.991Z,22.97
2018-12-29T14:56:32.632Z,23.47
2018-12-29T14:59:03.216Z,21.43
2018-12-29T15:01:33.942Z,24.73
2018-12-29T15:04:04.595Z,20.00
2018-12-29T15:06:39.601Z,22.00
2018-12-29T15:09:10.347Z,19.77
2018-12-29T15:11:40.862Z,22.57
2018-12-29T15:14:11.357Z,20.77
2018-12-29T15:16:42.264Z,20.43
2018-12-29T15:19:14.793Z,18.17
2018-12-29T15:21:45.366Z,17.40
2018-12-29T15:24:16.788Z,17.03
2018-12-29T15:26:47.424Z,19.83
2018-12-29T15:29:20.289Z,19.47
2018-12-29T15:31:53.144Z,15.33
2018-12-29T15:34:23.851Z,16.30
2018-12-29T15:36:54.299Z,18.30
2018-12-29T15:39:26.652Z,18.33
2018-12-29T15:41:57.189Z,17.53
2018-12-29T15:44:27.854Z,17.50
2018-12-29T15:46:58.656Z,18.73
2018-12-29T15:49:29.207Z,20.27
2018-12-29T15:52:02.583Z,18.57
2018-12-29T15:54:33.481Z,25.83
2018-12-29T15:57:04.087Z,22.90
2018-12-29T15:59:34.680Z,23.33
2018-12-29T16:02:05.267Z,25.30
2018-12-29T16:04:36.021Z,23.50
2018-12-29T16:07:06.757Z,27.10
2018-12-29T16:09:37.843Z,27.80
2018-12-29T16:12:08.444Z,33.23
2018-12-29T16:14:38.807Z,30.70
2018-12-29T16:17:10.639Z,31.07
2018-12-29T16:19:41.161Z,28.93
2018-12-29T16:22:11.563Z,36.37
2018-12-29T16:24:42.308Z,31.10
2018-12-29T16:27:12.777Z,33.73
2018-12-29T16:29:43.214Z,32.70
2018-12-29T16:32:13.662Z,32.87
2018-12-29T16:34:44.025Z,29.37
2018-12-29T16:37:14.425Z,35.07
2018-12-29T16:39:45.333Z,31.80
2018-12-29T16:42:15.805Z,35.10
2018-12-29T16:44:47.455Z,34.13
2018-12-29T16:47:18.392Z,35.17
2018-12-29T16:49:48.882Z,32.60
2018-12-29T16:52:23.127Z,33.83
2018-12-29T16:54:54.957Z,32.37
2018-12-29T16:57:25.360Z,32.03
2018-12-29T16:59:55.953Z,30.67
2018-12-29T17:02:26.443Z,28.00
2018-12-29T17:04:56.871Z,31.67
2018-12-29T17:07:27.808Z,29.57
2018-12-29T17:09:58.326Z,27.93
2018-12-29T17:12:28.707Z,31.33
2018-12-29T17:14:59.461Z,29.40
2018-12-29T17:17:29.831Z,25.47
2018-12-29T17:20:00.233Z,27.97
2018-12-29T17:22:30.906Z,28.77
2018-12-29T17:25:04.816Z,27.07
2018-12-29T17:27:35.247Z,26.37
2018-12-29T17:30:06.050Z,28.43
2018-12-29T17:32:38.649Z,26.03
2018-12-29T17:35:09.197Z,27.83
2018-12-29T17:37:41.396Z,26.87
2018-12-29T17:40:11.813Z,26.00
2018-12-29T17:42:42.251Z,27.37
2018-12-29T17:45:14.719Z,25.80
2018-12-29T17:47:45.008Z,35.50
2018-12-29T17:50:16.016Z,28.33
2018-12-29T17:52:49.584Z,24.93
2018-12-29T17:55:20.040Z,27.47
2018-12-29T17:57:57.813Z,27.30
2018-12-29T18:00:30.300Z,25.00
2018-12-29T18:03:01.843Z,27.30
2018-12-29T18:05:32.359Z,28.20
2018-12-29T18:08:02.853Z,29.70
2018-12-29T18:10:33.907Z,31.53
2018-12-29T18:13:04.376Z,28.60
2018-12-29T18:15:34.932Z,28.00
2018-12-29T18:18:05.555Z,28.77
2018-12-29T18:20:36.453Z,31.07
2018-12-29T18:23:06.968Z,27.90
2018-12-29T18:25:37.607Z,29.60
2018-12-29T18:28:10.596Z,28.77
2018-12-29T18:30:44.134Z,30.90
2018-12-29T18:33:15.033Z,30.13
2018-12-29T18:35:46.203Z,29.70
2018-12-29T18:38:18.654Z,35.40
2018-12-29T18:40:49.082Z,35.70
2018-12-29T18:43:19.511Z,29.83
2018-12-29T18:45:55.255Z,30.53
2018-12-29T18:48:26.771Z,31.47
2018-12-29T18:50:59.146Z,37.10
2018-12-29T18:53:31.878Z,34.33
2018-12-29T18:56:02.830Z,36.00
2018-12-29T18:58:33.419Z,42.20
2018-12-29T19:01:05.576Z,39.03
2018-12-29T19:03:36.355Z,35.30
2018-12-29T19:06:10.234Z,39.60
2018-12-29T19:08:41.063Z,37.60
2018-12-29T19:11:11.598Z,37.30
2018-12-29T19:13:42.112Z,42.17
2018-12-29T19:16:14.395Z,39.63
2018-12-29T19:18:49.990Z,39.00
2018-12-29T19:21:21.423Z,42.70
2018-12-29T19:23:52.422Z,46.50
2018-12-29T19:26:24.145Z,47.17
2018-12-29T19:28:55.863Z,44.90
2018-12-29T19:31:26.550Z,43.97
2018-12-29T19:33:57.336Z,44.77
2018-12-29T19:36:28.292Z,43.87
2018-12-29T19:38:59.289Z,46.43
2018-12-29T19:41:29.994Z,46.30
2018-12-29T19:44:03.451Z,47.33
2018-12-29T19:46:36.612Z,43.27
2018-12-29T19:49:07.139Z,46.33
2018-12-29T19:51:37.670Z,51.37
2018-12-29T19:54:08.646Z,45.00
2018-12-29T19:56:42.529Z,48.33
2018-12-29T19:59:15.605Z,49.20
2018-12-29T20:01:46.612Z,49.50
2018-12-29T20:04:18.532Z,56.83
2018-12-29T20:06:51.864Z,51.23
2018-12-29T20:09:23.017Z,49.13
2018-12-29T20:11:53.763Z,51.67
2018-12-29T20:14:24.721Z,47.53
2018-12-29T20:16:55.285Z,47.73
2018-12-29T20:19:28.070Z,47.50
2018-12-29T20:21:58.876Z,47.33
2018-12-29T20:24:29.971Z,46.60
2018-12-29T20:27:00.849Z,46.10
2018-12-29T20:29:33.894Z,44.93
2018-12-29T20:32:04.403Z,44.00
2018-12-29T20:34:36.061Z,46.50
2018-12-29T20:37:11.114Z,43.80
2018-12-29T20:39:41.979Z,39.30
2018-12-29T20:42:12.689Z,40.17
2018-12-29T20:44:43.675Z,39.50
2018-12-29T20:47:14.633Z,42.37
2018-12-29T20:49:46.241Z,39.43
2018-12-29T20:52:19.129Z,38.67
2018-12-29T20:54:50.311Z,37.93
2018-12-29T20:57:21.413Z,36.77
2018-12-29T20:59:55.390Z,34.20
2018-12-29T21:02:26.082Z,32.80
2018-12-29T21:05:00.270Z,37.80
2018-12-29T21:07:33.911Z,29.37
2018-12-29T21:10:07.143Z,28.17
2018-12-29T21:12:37.525Z,27.63
2018-12-29T21:15:08.157Z,25.33
2018-12-29T21:17:38.674Z,26.33
2018-12-29T21:20:17.348Z,25.87
2018-12-29T21:22:44.189Z,24.43
2018-12-29T21:25:14.551Z,26.13
2018-12-29T21:27:45.036Z,25.03
2018-12-29T21:30:15.774Z,32.17
2018-12-29T21:32:48.924Z,21.17
2018-12-29T21:35:19.457Z,21.83
2018-12-29T21:37:50.188Z,21.77
2018-12-29T21:40:20.565Z,20.97
2018-12-29T21:42:51.443Z,19.20
2018-12-29T21:45:21.952Z,21.80
2018-12-29T21:47:56.268Z,19.60
2018-12-29T21:50:28.264Z,24.27
2018-12-29T21:52:59.277Z,13.97
2018-12-29T21:55:30.025Z,14.03
2018-12-29T21:58:00.796Z,17.03
2018-12-29T22:00:31.201Z,14.87
2018-12-29T22:03:01.626Z,16.13
2018-12-29T22:05:32.542Z,15.83
2018-12-29T22:08:03.026Z,17.13
2018-12-29T22:10:35.279Z,15.63
2018-12-29T22:13:05.690Z,12.17
2018-12-29T22:15:36.167Z,14.83
2018-12-29T22:18:06.644Z,13.50
2018-12-29T22:20:39.947Z,21.00
2018-12-29T22:23:13.465Z,18.27
2018-12-29T22:25:48.118Z,13.33
2018-12-29T22:28:16.045Z,14.20
2018-12-29T22:30:46.470Z,13.73
2018-12-29T22:33:17.059Z,16.20
2018-12-29T22:35:47.943Z,12.30
2018-12-29T22:38:29.301Z,15.00
2018-12-29T22:40:59.760Z,18.97
2018-12-29T22:43:30.392Z,16.80
2018-12-29T22:46:00.871Z,15.93
2018-12-29T22:48:31.474Z,16.47
2018-12-29T22:51:03.199Z,16.17
2018-12-29T22:53:37.973Z,23.60
2018-12-29T22:56:08.870Z,16.80
2018-12-29T22:58:42.270Z,16.23
2018-12-29T23:01:13.349Z,16.43
2018-12-29T23:03:44.025Z,14.60
2018-12-29T23:06:14.986Z,10.67
2018-12-29T23:08:47.399Z,22.40
2018-12-29T23:11:25.157Z,15.43
2018-12-29T23:13:56.810Z,17.00
2018-12-29T23:16:27.327Z,15.97
2018-12-29T23:18:58.860Z,14.40
2018-12-29T23:21:34.327Z,14.17
2018-12-29T23:24:06.008Z,17.57
2018-12-29T23:26:37.536Z,16.40
2018-12-29T23:29:11.299Z,15.43
2018-12-29T23:31:44.496Z,17.00
2018-12-29T23:34:15.126Z,14.20
2018-12-29T23:36:48.588Z,15.90
2018-12-29T23:39:19.061Z,16.53
2018-12-29T23:41:50.330Z,12.90
2018-12-29T23:44:21.633Z,13.63
2018-12-29T23:46:54.001Z,14.03
2018-12-29T23:49:26.143Z,15.33
2018-12-29T23:51:57.552Z,17.43
2018-12-29T23:54:30.356Z,18.60
2018-12-29T23:57:04.108Z,13.93
2018-12-29T23:59:37.241Z,16.07
